Time;durP1;ratioP1;P1;durP2;ratioP2;P2;SDS_P1;SDS_P2;PMS_P1;PMS_P2;Temp;Humidity;BMP_temperature;BMP_pressure;BME280_temperature;BME280_humidity;BME280_pressure;Samples;Min_cycle;Max_cycle;Signal;HPM_P1;HPM_P2
2023/08/16 00:00:12;;;;;;;10.95;1.60;;;46.90;27.10;;;;;;5027479;28;20018;-57
2023/08/16 00:02:38;;;;;;;5.63;1.80;;;46.80;26.70;;;;;;5025810;28;20155;-56
2023/08/16 00:05:05;;;;;;;6.15;1.40;;;46.70;26.80;;;;;;5026946;28;20018;-58
2023/08/16 00:07:34;;;;;;;5.10;1.33;;;46.60;27.00;;;;;;5026526;28;20033;-57
2023/08/16 00:10:01;;;;;;;5.60;1.40;;;46.50;27.10;;;;;;5026484;28;20977;-58
2023/08/16 00:12:27;;;;;;;7.75;1.48;;;46.50;27.60;;;;;;5026565;28;20444;-58
2023/08/16 00:14:54;;;;;;;8.23;1.20;;;46.40;26.90;;;;;;5026285;28;20018;-55
2023/08/16 00:17:20;;;;;;;5.03;1.50;;;46.40;27.10;;;;;;5026603;28;20010;-56
2023/08/16 00:19:46;;;;;;;8.63;1.35;;;46.20;26.90;;;;;;5027404;28;20025;-60
2023/08/16 00:22:13;;;;;;;4.93;1.38;;;46.10;26.80;;;;;;5025982;28;20144;-57
2023/08/16 00:24:39;;;;;;;12.50;1.70;;;45.90;27.00;;;;;;5025490;28;20017;-56
2023/08/16 00:27:06;;;;;;;6.80;1.23;;;46.00;27.00;;;;;;5026233;28;20040;-57
2023/08/16 00:29:33;;;;;;;9.20;1.42;;;45.80;26.90;;;;;;5025743;28;20075;-55
2023/08/16 00:32:02;;;;;;;4.80;1.55;;;45.70;27.30;;;;;;5025656;28;20033;-56
2023/08/16 00:34:28;;;;;;;3.45;1.27;;;45.70;27.30;;;;;;5026234;28;20029;-56
2023/08/16 00:36:55;;;;;;;5.45;1.40;;;45.70;27.00;;;;;;5026026;28;20017;-57
2023/08/16 00:39:21;;;;;;;7.70;1.50;;;45.70;27.00;;;;;;5026476;28;20021;-52
2023/08/16 00:41:48;;;;;;;9.10;3.90;;;45.50;26.70;;;;;;5026778;28;20021;-58
2023/08/16 00:44:16;;;;;;;5.03;1.58;;;45.30;26.80;;;;;;5025641;28;20099;-51
2023/08/16 00:46:43;;;;;;;7.40;1.65;;;45.40;27.70;;;;;;5025613;28;20426;-56
2023/08/16 00:49:09;;;;;;;5.65;1.60;;;45.30;27.70;;;;;;5026145;28;20029;-55
2023/08/16 00:51:37;;;;;;;9.88;1.55;;;45.30;27.60;;;;;;5026035;28;20064;-57
2023/08/16 00:54:04;;;;;;;3.80;1.35;;;45.20;28.80;;;;;;5025872;28;20383;-56
2023/08/16 00:56:30;;;;;;;6.15;1.55;;;45.20;27.40;;;;;;5026319;28;20049;-57
2023/08/16 00:58:58;;;;;;;7.45;1.30;;;45.00;27.40;;;;;;5025630;28;20028;-55
2023/08/16 01:01:24;;;;;;;5.88;1.40;;;44.90;27.20;;;;;;5025484;28;20057;-56
2023/08/16 01:03:51;;;;;;;7.15;1.80;;;44.90;27.50;;;;;;5025644;28;20021;-54
2023/08/16 01:06:18;;;;;;;6.28;2.78;;;44.90;27.20;;;;;;5025646;28;20064;-57
2023/08/16 01:08:44;;;;;;;7.25;1.50;;;44.80;27.20;;;;;;5026798;28;20072;-56
2023/08/16 01:11:24;;;;;;;6.35;1.77;;;44.80;27.30;;;;;;5023356;28;20867;-55
2023/08/16 01:14:03;;;;;;;8.18;1.35;;;44.80;27.80;;;;;;5025169;28;20048;-59
2023/08/16 01:16:30;;;;;;;9.48;2.00;;;44.70;27.40;;;;;;5024309;28;20033;-59
2023/08/16 01:18:58;;;;;;;4.90;0.90;;;44.70;27.70;;;;;;5026026;28;20467;-56
2023/08/16 01:21:27;;;;;;;5.88;1.30;;;44.60;27.50;;;;;;5026105;28;20029;-60
2023/08/16 01:24:15;;;;;;;7.13;1.17;;;44.60;27.60;;;;;;5025509;28;20383;-59
2023/08/16 01:26:43;;;;;;;3.28;1.08;;;44.50;28.30;;;;;;5024690;28;20033;-56
2023/08/16 01:29:10;;;;;;;5.47;1.30;;;44.40;27.70;;;;;;5025614;28;20486;-56
2023/08/16 01:31:37;;;;;;;6.18;1.40;;;44.30;28.10;;;;;;5025831;28;20024;-56
2023/08/16 01:34:04;;;;;;;8.25;1.40;;;44.20;28.20;;;;;;5025750;28;20037;-58
2023/08/16 01:36:30;;;;;;;3.35;1.45;;;44.10;28.20;;;;;;5026272;28;20021;-57
2023/08/16 01:38:57;;;;;;;10.77;2.20;;;44.00;27.80;;;;;;5026241;28;20434;-57
2023/08/16 01:41:39;;;;;;;9.15;1.70;;;43.90;27.90;;;;;;5024464;28;20021;-58
2023/08/16 01:44:08;;;;;;;4.43;1.40;;;43.90;28.30;;;;;;5025028;28;20040;-55
2023/08/16 01:46:35;;;;;;;7.32;1.52;;;43.70;28.30;;;;;;5024947;28;20021;-58
2023/08/16 01:49:02;;;;;;;8.45;1.52;;;43.60;27.90;;;;;;5024425;28;20037;-58
2023/08/16 01:51:29;;;;;;;13.05;1.67;;;43.60;28.30;;;;;;5026016;28;20025;-56
2023/08/16 01:53:55;;;;;;;44.13;5.60;;;43.50;29.10;;;;;;5025713;28;20021;-55
2023/08/16 01:56:22;;;;;;;13.32;2.58;;;43.40;35.70;;;;;;5025520;28;20038;-58
2023/08/16 01:58:49;;;;;;;10.43;2.00;;;43.30;33.80;;;;;;5025838;28;20033;-58
2023/08/16 02:01:16;;;;;;;13.13;2.33;;;43.10;31.70;;;;;;5024884;28;20017;-57
2023/08/16 02:03:42;;;;;;;6.22;1.55;;;43.00;32.80;;;;;;5026527;28;20017;-58
2023/08/16 02:06:09;;;;;;;11.95;1.70;;;42.90;33.70;;;;;;5025566;28;20039;-58
2023/08/16 02:08:35;;;;;;;6.55;1.50;;;42.80;30.50;;;;;;5025765;28;20044;-59
2023/08/16 02:11:01;;;;;;;3.78;1.20;;;42.60;31.00;;;;;;5026584;28;20017;-57
2023/08/16 02:13:28;;;;;;;23.58;2.53;;;42.50;33.00;;;;;;5028745;28;20474;-56
2023/08/16 02:16:04;;;;;;;7.53;1.65;;;42.50;31.90;;;;;;5028736;28;20101;-59
2023/08/16 02:18:31;;;;;;;7.72;1.67;;;42.40;32.10;;;;;;5028830;28;20025;-58
2023/08/16 02:20:58;;;;;;;10.77;1.70;;;42.30;31.80;;;;;;5029235;28;20060;-57
2023/08/16 02:23:24;;;;;;;9.85;1.60;;;42.20;31.50;;;;;;5027739;28;20021;-60
2023/08/16 02:25:51;;;;;;;12.40;2.20;;;42.10;32.30;;;;;;5029232;28;20024;-59
2023/08/16 02:28:18;;;;;;;8.23;1.88;;;42.10;33.30;;;;;;5030269;28;20108;-57
2023/08/16 02:30:44;;;;;;;13.23;1.77;;;41.90;32.20;;;;;;5027488;28;20410;-58
2023/08/16 02:33:11;;;;;;;9.07;1.83;;;41.80;33.00;;;;;;5030024;28;20020;-57
2023/08/16 02:35:37;;;;;;;10.38;2.10;;;41.80;32.90;;;;;;5029387;28;20556;-61
2023/08/16 02:38:04;;;;;;;10.65;2.00;;;41.70;34.90;;;;;;5028092;28;20075;-59
2023/08/16 02:40:31;;;;;;;6.75;2.35;;;41.60;34.00;;;;;;5029541;28;20029;-61
2023/08/16 02:42:57;;;;;;;45.28;4.78;;;41.40;37.50;;;;;;5027461;28;20159;-60
2023/08/16 02:45:23;;;;;;;15.82;2.35;;;41.30;38.10;;;;;;5028808;28;20043;-61
2023/08/16 02:47:50;;;;;;;10.40;2.45;;;41.30;36.40;;;;;;5028488;28;20028;-58
2023/08/16 02:50:17;;;;;;;16.60;2.25;;;41.20;35.90;;;;;;5028918;28;20040;-59
2023/08/16 02:52:43;;;;;;;15.80;2.40;;;41.10;37.10;;;;;;5027434;28;20013;-59
2023/08/16 02:55:10;;;;;;;8.80;2.40;;;41.00;35.10;;;;;;5028336;28;20063;-54
2023/08/16 02:57:36;;;;;;;11.88;2.42;;;41.00;34.50;;;;;;5028711;28;20075;-57
2023/08/16 03:00:03;;;;;;;8.10;2.75;;;40.90;35.70;;;;;;5028215;28;20148;-57
2023/08/16 03:02:29;;;;;;;12.63;2.38;;;40.90;34.30;;;;;;5027635;28;20018;-58
2023/08/16 03:04:56;;;;;;;12.07;2.10;;;40.80;33.20;;;;;;5028327;28;20026;-57
2023/08/16 03:07:23;;;;;;;37.45;3.72;;;40.90;32.20;;;;;;5027664;28;20036;-59
2023/08/16 03:09:49;;;;;;;15.43;2.80;;;40.90;32.20;;;;;;5028575;28;20063;-55
2023/08/16 03:12:15;;;;;;;9.85;2.50;;;40.90;33.00;;;;;;5027553;28;20009;-57
2023/08/16 03:14:42;;;;;;;7.65;2.55;;;40.90;32.50;;;;;;5028135;28;20128;-63
2023/08/16 03:17:08;;;;;;;13.48;2.65;;;40.80;32.90;;;;;;5027960;28;20042;-56
2023/08/16 03:19:35;;;;;;;11.30;2.75;;;40.80;32.60;;;;;;5026989;28;20075;-59
2023/08/16 03:22:02;;;;;;;4.50;2.08;;;40.80;33.10;;;;;;5026472;28;20060;-58
2023/08/16 03:24:28;;;;;;;10.80;2.22;;;40.80;32.70;;;;;;5027181;28;20615;-59
2023/08/16 03:26:55;;;;;;;4.10;2.63;;;40.60;32.80;;;;;;5026117;28;20112;-60
2023/08/16 03:29:21;;;;;;;6.55;2.67;;;40.60;32.80;;;;;;5026613;28;20014;-60
2023/08/16 03:31:48;;;;;;;4.07;2.00;;;40.60;32.90;;;;;;5027347;28;20495;-59
2023/08/16 03:34:14;;;;;;;6.18;2.33;;;40.60;33.00;;;;;;5026672;28;20017;-57
2023/08/16 03:36:41;;;;;;;4.13;2.28;;;40.50;32.50;;;;;;5027105;28;20023;-56
2023/08/16 03:39:07;;;;;;;7.90;2.40;;;40.60;33.10;;;;;;5026635;28;20014;-60
2023/08/16 03:41:34;;;;;;;8.38;2.45;;;40.50;32.90;;;;;;5026521;28;20120;-58
2023/08/16 03:44:01;;;;;;;6.78;2.10;;;40.50;32.80;;;;;;5026610;28;20362;-57
2023/08/16 03:46:27;;;;;;;9.18;2.45;;;40.40;32.50;;;;;;5025257;28;20017;-55
2023/08/16 03:48:54;;;;;;;8.02;2.13;;;40.40;32.80;;;;;;5026197;28;20359;-59
2023/08/16 03:51:20;;;;;;;4.22;2.25;;;40.40;33.60;;;;;;5026193;28;20010;-60
2023/08/16 03:53:46;;;;;;;4.03;2.40;;;40.40;33.40;;;;;;5027367;28;20029;-60
2023/08/16 03:56:13;;;;;;;9.77;2.83;;;40.30;32.90;;;;;;5025548;28;20022;-55
2023/08/16 03:58:39;;;;;;;6.13;2.45;;;40.30;33.00;;;;;;5027439;28;20013;-59
2023/08/16 04:01:06;;;;;;;7.18;2.92;;;40.20;32.70;;;;;;5027990;28;20075;-55
2023/08/16 04:03:32;;;;;;;6.20;2.50;;;40.20;33.30;;;;;;5026789;28;20131;-62
2023/08/16 04:05:58;;;;;;;7.10;2.20;;;40.10;33.20;;;;;;5025658;28;20013;-57
2023/08/16 04:08:25;;;;;;;4.32;1.95;;;40.10;33.10;;;;;;5027740;28;20029;-58
2023/08/16 04:10:51;;;;;;;5.63;1.95;;;40.10;33.20;;;;;;5028637;28;20025;-58
2023/08/16 04:13:17;;;;;;;5.93;2.40;;;40.10;33.40;;;;;;5028929;28;20059;-56
2023/08/16 04:15:44;;;;;;;5.55;2.03;;;40.00;33.70;;;;;;5028717;28;20053;-57
2023/08/16 04:18:10;;;;;;;5.57;1.95;;;39.90;33.30;;;;;;5026129;28;20022;-56
2023/08/16 04:20:37;;;;;;;5.70;2.25;;;39.90;33.70;;;;;;5027861;28;20022;-58
2023/08/16 04:23:03;;;;;;;8.77;2.10;;;39.80;33.60;;;;;;5027518;28;20018;-57
2023/08/16 04:25:30;;;;;;;8.30;1.95;;;39.80;33.60;;;;;;5026907;28;20029;-56
2023/08/16 04:27:56;;;;;;;4.88;1.70;;;39.80;33.80;;;;;;5027685;28;20479;-56
2023/08/16 04:30:22;;;;;;;4.80;1.88;;;39.70;34.10;;;;;;5027658;28;20096;-58
2023/08/16 04:32:49;;;;;;;6.72;2.22;;;39.60;34.10;;;;;;5027199;28;20017;-58
2023/08/16 04:35:15;;;;;;;5.78;2.22;;;39.50;34.20;;;;;;5027339;28;20426;-56
2023/08/16 04:37:42;;;;;;;6.80;1.73;;;39.50;33.60;;;;;;5027199;28;20479;-57
2023/08/16 04:40:09;;;;;;;3.58;2.00;;;39.50;33.80;;;;;;5025778;28;20498;-55
2023/08/16 04:42:35;;;;;;;6.70;2.38;;;39.50;34.30;;;;;;5026653;28;20033;-60
2023/08/16 04:45:03;;;;;;;17.27;2.72;;;39.40;34.40;;;;;;5026975;28;20096;-56
2023/08/16 04:47:30;;;;;;;8.50;2.42;;;39.40;34.20;;;;;;5027061;28;20047;-56
2023/08/16 04:49:58;;;;;;;8.38;2.70;;;39.40;34.40;;;;;;5027994;28;20390;-58
2023/08/16 04:52:25;;;;;;;15.85;2.90;;;39.30;34.00;;;;;;5027401;28;20010;-58
2023/08/16 04:54:51;;;;;;;10.05;3.22;;;39.30;34.30;;;;;;5027027;28;20022;-55
2023/08/16 04:57:17;;;;;;;13.15;2.35;;;39.20;34.10;;;;;;5027094;28;20021;-56
2023/08/16 04:59:44;;;;;;;5.60;2.20;;;39.10;34.00;;;;;;5028280;28;20021;-60
2023/08/16 05:02:10;;;;;;;9.02;1.75;;;39.20;34.60;;;;;;5026334;28;20021;-54
2023/08/16 05:04:37;;;;;;;5.82;2.10;;;39.10;34.20;;;;;;5026676;28;20022;-59
2023/08/16 05:07:03;;;;;;;7.28;2.70;;;39.10;34.30;;;;;;5027366;28;20021;-61
2023/08/16 05:09:29;;;;;;;7.65;1.92;;;39.10;34.40;;;;;;5026541;28;20113;-63
2023/08/16 05:11:56;;;;;;;7.85;2.35;;;39.10;34.80;;;;;;5024217;28;20025;-58
2023/08/16 05:14:23;;;;;;;26.13;3.53;;;39.10;35.00;;;;;;5027045;28;20014;-59
2023/08/16 05:16:49;;;;;;;19.83;2.85;;;39.00;34.70;;;;;;5027162;28;20428;-56
2023/08/16 05:19:16;;;;;;;6.72;4.50;;;39.00;34.70;;;;;;5026230;28;20108;-56
2023/08/16 05:21:42;;;;;;;9.50;4.15;;;38.90;35.80;;;;;;5027239;28;20022;-59
2023/08/16 05:24:09;;;;;;;14.85;2.78;;;38.90;36.50;;;;;;5026568;28;20018;-58
2023/08/16 05:26:35;;;;;;;14.18;2.35;;;38.80;35.30;;;;;;5025411;28;20052;-60
2023/08/16 05:29:02;;;;;;;6.20;1.98;;;38.80;35.60;;;;;;5025927;28;20038;-56
2023/08/16 05:31:28;;;;;;;7.50;1.98;;;38.80;35.20;;;;;;5025263;28;20040;-62
2023/08/16 05:33:55;;;;;;;10.20;2.28;;;38.70;35.60;;;;;;5026846;28;20021;-59
2023/08/16 05:36:21;;;;;;;11.48;2.13;;;38.70;40.50;;;;;;5027212;28;20521;-55
2023/08/16 05:38:47;;;;;;;6.95;2.05;;;38.60;37.70;;;;;;5026323;28;20022;-57
2023/08/16 05:41:14;;;;;;;6.20;1.83;;;38.50;40.00;;;;;;5027385;28;20026;-60
2023/08/16 05:43:41;;;;;;;8.88;2.17;;;38.50;38.00;;;;;;5026210;28;20022;-58
2023/08/16 05:46:07;;;;;;;8.80;2.05;;;38.50;39.10;;;;;;5027206;28;20473;-59
2023/08/16 05:48:34;;;;;;;11.27;3.80;;;38.50;38.30;;;;;;5029664;28;20426;-60
2023/08/16 05:51:00;;;;;;;14.43;3.13;;;38.40;37.00;;;;;;5030364;28;20087;-59
2023/08/16 05:53:26;;;;;;;14.00;2.83;;;38.40;37.80;;;;;;5029672;28;20068;-57
2023/08/16 05:55:53;;;;;;;19.85;3.05;;;38.40;37.60;;;;;;5030589;28;20036;-56
2023/08/16 05:58:19;;;;;;;15.38;2.80;;;38.30;38.30;;;;;;5031278;28;20013;-60
2023/08/16 06:00:47;;;;;;;12.25;3.38;;;38.30;38.40;;;;;;5030190;28;20478;-59
2023/08/16 06:03:14;;;;;;;21.73;3.70;;;38.20;38.70;;;;;;5029558;28;20059;-60
2023/08/16 06:05:40;;;;;;;18.48;4.15;;;38.10;39.30;;;;;;5030221;28;20079;-59
2023/08/16 06:08:08;;;;;;;12.20;3.72;;;38.10;39.00;;;;;;5029998;28;20158;-59
2023/08/16 06:10:34;;;;;;;13.50;3.35;;;38.10;39.00;;;;;;5030623;28;20071;-59
2023/08/16 06:13:01;;;;;;;14.25;2.58;;;38.00;38.50;;;;;;5029915;28;20054;-59
2023/08/16 06:15:27;;;;;;;4.85;1.45;;;38.00;37.90;;;;;;5030472;28;20037;-63
2023/08/16 06:17:53;;;;;;;14.93;2.05;;;38.00;37.70;;;;;;5028656;28;20013;-61
2023/08/16 06:20:20;;;;;;;5.60;1.95;;;38.00;38.10;;;;;;5030784;28;20512;-60
2023/08/16 06:22:46;;;;;;;12.75;2.15;;;38.00;37.60;;;;;;5029349;28;20521;-61
2023/08/16 06:25:13;;;;;;;9.30;1.85;;;38.00;38.00;;;;;;5029062;28;20471;-58
2023/08/16 06:27:40;;;;;;;11.73;3.08;;;37.90;37.80;;;;;;5029197;28;20123;-62
2023/08/16 06:30:07;;;;;;;13.27;2.53;;;37.90;37.40;;;;;;5030079;28;20044;-60
2023/08/16 06:32:33;;;;;;;6.43;2.15;;;37.90;37.50;;;;;;5028076;28;20048;-59
2023/08/16 06:35:00;;;;;;;7.50;2.00;;;37.90;37.50;;;;;;5030262;28;20086;-59
2023/08/16 06:37:26;;;;;;;11.50;2.17;;;37.90;37.80;;;;;;5029324;28;20522;-61
2023/08/16 06:39:52;;;;;;;9.55;2.03;;;37.90;38.30;;;;;;5029426;28;20550;-56
2023/08/16 06:42:19;;;;;;;9.10;2.80;;;37.80;38.10;;;;;;5028488;28;20049;-58
2023/08/16 06:44:45;;;;;;;8.95;2.10;;;37.80;37.40;;;;;;5029928;28;20094;-60
2023/08/16 06:47:12;;;;;;;10.82;2.78;;;37.80;37.50;;;;;;5028562;28;20087;-60
2023/08/16 06:49:38;;;;;;;9.10;2.80;;;37.70;39.00;;;;;;5029891;28;20040;-60
2023/08/16 06:52:05;;;;;;;12.07;2.78;;;37.70;37.90;;;;;;5030499;28;20063;-57
2023/08/16 06:54:32;;;;;;;8.02;2.03;;;37.70;38.00;;;;;;5030159;28;20540;-59
2023/08/16 06:56:59;;;;;;;10.05;2.10;;;37.70;38.60;;;;;;5029952;28;20413;-60
2023/08/16 06:59:26;;;;;;;39.38;3.65;;;37.60;39.10;;;;;;5029489;28;21738;-56
2023/08/16 07:01:52;;;;;;;11.32;2.20;;;37.60;39.20;;;;;;5029153;28;20051;-62
2023/08/16 07:04:19;;;;;;;16.00;2.63;;;37.50;38.50;;;;;;5029867;28;20040;-61
2023/08/16 07:06:45;;;;;;;9.43;2.47;;;37.50;39.30;;;;;;5027178;28;20060;-60
2023/08/16 07:09:11;;;;;;;10.88;1.98;;;37.40;38.70;;;;;;5026864;28;20065;-63
2023/08/16 07:11:38;;;;;;;10.95;2.20;;;37.40;38.30;;;;;;5027797;28;20133;-66
2023/08/16 07:14:04;;;;;;;11.65;2.22;;;37.40;38.70;;;;;;5028414;28;20047;-65
2023/08/16 07:16:31;;;;;;;7.47;1.98;;;37.30;38.40;;;;;;5028505;28;20075;-64
2023/08/16 07:18:57;;;;;;;12.55;2.80;;;37.30;38.60;;;;;;5028278;28;20137;-62
2023/08/16 07:21:24;;;;;;;9.57;2.20;;;37.30;38.50;;;;;;5028857;28;20552;-63
2023/08/16 07:23:50;;;;;;;7.68;2.13;;;37.20;38.70;;;;;;5027487;28;20100;-63
2023/08/16 07:26:16;;;;;;;6.60;2.40;;;37.20;38.20;;;;;;5027935;28;20057;-60
2023/08/16 07:28:43;;;;;;;10.13;2.08;;;37.20;39.30;;;;;;5027893;28;20581;-63
2023/08/16 07:31:09;;;;;;;15.38;2.50;;;37.20;39.50;;;;;;5028388;28;20049;-63
2023/08/16 07:33:36;;;;;;;11.50;2.25;;;37.10;39.50;;;;;;5028633;28;20050;-63
2023/08/16 07:36:03;;;;;;;21.33;2.83;;;37.10;40.40;;;;;;5028252;28;20050;-63
2023/08/16 07:38:33;;;;;;;20.10;2.78;;;37.00;40.10;;;;;;5027979;28;20143;-65
2023/08/16 07:41:00;;;;;;;13.98;3.15;;;37.00;41.00;;;;;;5028485;28;20048;-64
2023/08/16 07:43:28;;;;;;;17.58;3.20;;;36.90;40.70;;;;;;5027845;28;20046;-60
2023/08/16 07:45:54;;;;;;;14.88;2.92;;;36.90;40.90;;;;;;5027075;28;20051;-63
2023/08/16 07:48:21;;;;;;;10.75;3.10;;;36.80;40.90;;;;;;5028857;28;20060;-60
2023/08/16 07:50:50;;;;;;;18.75;3.33;;;36.80;40.90;;;;;;5028820;28;20129;-62
2023/08/16 07:53:17;;;;;;;17.17;3.20;;;36.70;41.10;;;;;;5028452;28;20164;-65
2023/08/16 07:55:43;;;;;;;15.18;3.28;;;36.70;41.30;;;;;;5029347;28;20055;-62
2023/08/16 07:58:10;;;;;;;15.60;2.50;;;36.60;41.60;;;;;;5027361;28;20102;-63
2023/08/16 08:00:36;;;;;;;9.20;2.30;;;36.60;42.00;;;;;;5027049;28;20124;-64
2023/08/16 08:03:03;;;;;;;13.57;2.90;;;36.60;41.00;;;;;;5027766;28;20040;-64
2023/08/16 08:05:31;;;;;;;10.65;2.53;;;36.50;40.90;;;;;;5027435;28;20552;-60
2023/08/16 08:09:26;;;;;;;45.20;3.97;;;36.60;40.10;;;;;;5070828;27;20410;-63
2023/08/16 08:11:53;;;;;;;13.25;2.72;;;36.70;40.60;;;;;;5070568;28;20043;-62
2023/08/16 08:14:19;;;;;;;14.77;3.22;;;36.80;40.10;;;;;;5067038;28;20042;-66
2023/08/16 08:16:46;;;;;;;10.50;2.40;;;36.80;40.40;;;;;;5068202;28;20045;-65
2023/08/16 08:19:12;;;;;;;9.18;2.42;;;36.90;40.50;;;;;;5063153;28;20058;-67
2023/08/16 08:21:39;;;;;;;16.23;2.88;;;36.90;40.60;;;;;;5063919;28;20044;-66
2023/08/16 08:24:05;;;;;;;8.98;2.40;;;37.00;39.50;;;;;;5064858;28;20488;-65
2023/08/16 08:26:32;;;;;;;10.82;3.40;;;37.00;39.70;;;;;;5062537;28;20139;-64
2023/08/16 08:28:58;;;;;;;9.82;2.70;;;37.00;41.00;;;;;;5063383;28;20062;-66
2023/08/16 08:31:25;;;;;;;9.27;2.40;;;37.00;40.20;;;;;;5063712;28;20068;-67
2023/08/16 08:33:51;;;;;;;12.15;2.83;;;37.00;40.80;;;;;;5062998;28;20079;-64
2023/08/16 08:36:17;;;;;;;15.27;2.50;;;37.00;40.40;;;;;;5073582;28;20100;-66
2023/08/16 08:38:44;;;;;;;16.80;2.97;;;36.90;39.90;;;;;;5064193;28;20057;-65
2023/08/16 08:41:10;;;;;;;13.27;3.22;;;36.90;40.40;;;;;;5062703;28;20069;-66
2023/08/16 08:43:38;;;;;;;7.95;2.60;;;36.90;40.30;;;;;;5061955;28;20131;-64
2023/08/16 08:46:05;;;;;;;15.52;4.47;;;36.90;39.50;;;;;;5061938;28;20129;-64
2023/08/16 08:48:32;;;;;;;15.57;4.38;;;36.90;39.60;;;;;;5060990;28;20068;-69
2023/08/16 08:51:02;;;;;;;10.52;3.70;;;36.90;40.70;;;;;;5062628;28;20129;-69
2023/08/16 08:53:29;;;;;;;14.57;3.17;;;36.90;39.80;;;;;;5066622;28;21853;-68
2023/08/16 08:56:02;;;;;;;9.73;3.33;;;36.90;38.90;;;;;;5060881;28;20040;-68
2023/08/16 08:58:30;;;;;;;16.23;3.10;;;36.90;40.00;;;;;;5062100;28;20045;-67
2023/08/16 09:00:57;;;;;;;16.60;3.35;;;36.90;40.20;;;;;;5063070;28;20052;-67
2023/08/16 09:03:26;;;;;;;12.73;3.30;;;36.90;40.10;;;;;;5063026;28;20516;-67
2023/08/16 09:05:58;;;;;;;11.80;3.38;;;36.90;39.90;;;;;;5060852;28;20582;-67
2023/08/16 09:08:24;;;;;;;15.60;3.20;;;36.80;40.10;;;;;;5062309;28;20085;-65
2023/08/16 09:10:51;;;;;;;10.77;3.00;;;36.80;40.20;;;;;;5062722;28;20057;-66
2023/08/16 09:13:19;;;;;;;11.52;3.00;;;36.90;40.80;;;;;;5062875;28;20051;-66
2023/08/16 09:15:45;;;;;;;13.77;4.32;;;36.90;40.30;;;;;;5066745;28;20062;-63
2023/08/16 09:18:17;;;;;;;22.20;4.50;;;36.90;40.70;;;;;;5063678;28;20053;-68
2023/08/16 09:20:44;;;;;;;25.00;4.57;;;36.80;39.60;;;;;;5049905;28;20038;-67
2023/08/16 09:23:14;;;;;;;19.60;3.42;;;36.80;39.80;;;;;;5047797;28;20752;-67
2023/08/16 09:25:41;;;;;;;16.90;4.13;;;36.80;40.30;;;;;;5047582;28;20070;-69
2023/08/16 09:28:12;;;;;;;17.48;4.00;;;36.80;40.20;;;;;;5047904;28;20077;-67
2023/08/16 09:30:38;;;;;;;16.10;4.00;;;36.80;40.60;;;;;;5048179;28;20047;-69
2023/08/16 09:33:05;;;;;;;15.10;3.55;;;36.80;40.60;;;;;;5049084;28;20556;-69
2023/08/16 09:35:44;;;;;;;15.98;3.70;;;36.80;40.60;;;;;;5053707;28;20504;-67
2023/08/16 09:38:15;;;;;;;23.80;3.67;;;36.70;40.80;;;;;;5048289;28;20191;-67
2023/08/16 09:40:51;;;;;;;18.60;4.25;;;36.70;40.80;;;;;;5045755;28;20052;-68
2023/08/16 09:43:19;;;;;;;20.02;3.70;;;36.70;41.00;;;;;;5047996;28;20091;-69
2023/08/16 09:45:53;;;;;;;26.45;4.03;;;36.60;41.20;;;;;;5049588;28;20052;-69
2023/08/16 09:48:21;;;;;;;14.55;3.80;;;36.60;41.30;;;;;;5047894;28;20093;-69
2023/08/16 09:50:49;;;;;;;20.77;4.70;;;36.60;41.30;;;;;;5047562;28;20532;-67
2023/08/16 09:53:15;;;;;;;27.77;5.00;;;36.60;41.60;;;;;;5052218;28;20050;-68
2023/08/16 09:55:43;;;;;;;26.80;5.25;;;36.50;41.50;;;;;;5048108;28;20039;-68
2023/08/16 09:58:11;;;;;;;18.63;4.47;;;36.50;40.90;;;;;;5046911;28;20461;-68
2023/08/16 10:00:39;;;;;;;15.50;4.35;;;36.50;40.60;;;;;;5048849;28;20049;-68
2023/08/16 10:03:08;;;;;;;22.25;4.60;;;36.50;40.50;;;;;;5049754;28;20426;-68
2023/08/16 10:05:36;;;;;;;33.70;5.47;;;36.50;40.80;;;;;;5047997;28;20050;-70
2023/08/16 10:08:05;;;;;;;24.10;5.40;;;36.50;41.10;;;;;;5047623;28;20212;-66
2023/08/16 10:10:32;;;;;;;17.17;4.47;;;36.50;41.70;;;;;;5048397;28;20140;-67
2023/08/16 10:13:03;;;;;;;29.90;5.07;;;36.50;41.70;;;;;;5047862;28;20530;-69
2023/08/16 10:15:33;;;;;;;23.27;4.68;;;36.50;41.10;;;;;;5047585;28;20111;-68
2023/08/16 10:18:02;;;;;;;14.90;4.28;;;36.50;41.30;;;;;;5047318;28;20453;-68
2023/08/16 10:20:32;;;;;;;16.52;4.63;;;36.40;40.80;;;;;;5048575;28;20412;-67
2023/08/16 10:23:03;;;;;;;21.85;4.30;;;36.40;42.00;;;;;;5048686;28;20049;-67
2023/08/16 10:25:44;;;;;;;16.92;4.22;;;36.40;41.90;;;;;;5047540;28;20071;-66
2023/08/16 10:28:11;;;;;;;15.55;3.58;;;36.40;41.50;;;;;;5046661;28;20070;-67
2023/08/16 10:30:39;;;;;;;20.63;3.78;;;36.30;41.70;;;;;;5046452;28;20044;-67
2023/08/16 10:33:17;;;;;;;19.83;3.55;;;36.40;42.20;;;;;;5046305;28;20039;-67
2023/08/16 10:35:44;;;;;;;23.40;4.60;;;36.40;41.70;;;;;;5046896;28;20406;-68
2023/08/16 10:38:11;;;;;;;14.85;3.70;;;36.30;41.30;;;;;;5046791;28;20050;-67
2023/08/16 10:40:37;;;;;;;14.80;3.55;;;36.30;41.70;;;;;;5047286;28;20136;-67
2023/08/16 10:43:08;;;;;;;16.23;3.55;;;36.30;41.80;;;;;;5047695;28;20044;-67
2023/08/16 10:45:35;;;;;;;13.60;3.47;;;36.40;41.90;;;;;;5046344;28;20106;-65
2023/08/16 10:48:14;;;;;;;12.85;3.30;;;36.30;41.80;;;;;;5046473;28;20094;-64
2023/08/16 10:50:42;;;;;;;14.18;3.70;;;36.30;42.30;;;;;;5046959;28;20471;-62
2023/08/16 10:53:09;;;;;;;16.45;3.92;;;36.30;42.30;;;;;;5046291;28;20116;-67
2023/08/16 10:55:36;;;;;;;16.90;3.90;;;36.20;42.80;;;;;;5046567;28;20056;-66
2023/08/16 10:58:02;;;;;;;16.08;3.33;;;36.30;42.70;;;;;;5045216;28;20169;-67
2023/08/16 11:00:35;;;;;;;9.68;3.30;;;36.30;42.70;;;;;;5046115;28;20392;-63
2023/08/16 11:03:04;;;;;;;18.13;3.70;;;36.20;43.00;;;;;;5045380;28;20078;-66
2023/08/16 11:05:34;;;;;;;15.10;3.35;;;36.20;43.60;;;;;;5053291;28;20062;-67
2023/08/16 11:08:02;;;;;;;29.08;4.38;;;36.10;44.00;;;;;;5043966;28;20093;-65
2023/08/16 11:10:34;;;;;;;18.05;3.17;;;36.10;44.30;;;;;;5045544;28;20051;-67
2023/08/16 11:13:03;;;;;;;11.57;2.97;;;36.10;44.50;;;;;;5045933;28;20057;-65
2023/08/16 11:15:29;;;;;;;15.27;3.50;;;36.10;44.90;;;;;;5045349;28;20106;-65
2023/08/16 11:17:56;;;;;;;13.40;2.90;;;36.00;44.90;;;;;;5049491;28;20538;-69
2023/08/16 11:20:25;;;;;;;12.77;3.38;;;36.00;45.20;;;;;;5046815;28;20054;-67
2023/08/16 11:22:52;;;;;;;8.70;3.25;;;36.00;45.50;;;;;;5045785;28;20058;-67
2023/08/16 11:25:18;;;;;;;13.82;3.47;;;35.90;45.80;;;;;;5045504;28;20164;-67
2023/08/16 11:27:45;;;;;;;14.15;3.40;;;36.00;45.80;;;;;;5044143;28;20062;-66
2023/08/16 11:30:13;;;;;;;9.43;3.30;;;35.90;45.90;;;;;;5045642;28;20053;-65
2023/08/16 11:32:40;;;;;;;12.07;3.30;;;35.90;45.90;;;;;;5049533;28;20394;-67
2023/08/16 11:35:08;;;;;;;17.05;3.10;;;35.90;46.00;;;;;;5045546;28;20131;-64
2023/08/16 11:37:41;;;;;;;16.63;3.83;;;35.90;46.80;;;;;;5044637;28;20089;-67
2023/08/16 11:40:11;;;;;;;12.30;3.58;;;35.90;46.60;;;;;;5045305;28;20055;-68
2023/08/16 11:42:38;;;;;;;8.18;3.13;;;35.90;46.70;;;;;;5044456;28;20486;-67
2023/08/16 11:45:20;;;;;;;13.88;3.15;;;35.80;48.60;;;;;;5045403;28;20055;-67
2023/08/16 11:47:51;;;;;;;18.40;3.22;;;35.80;47.80;;;;;;5044081;28;20093;-67
2023/08/16 11:50:17;;;;;;;15.52;3.17;;;35.70;47.70;;;;;;5045143;28;20436;-67
2023/08/16 11:52:45;;;;;;;13.20;3.05;;;35.70;47.60;;;;;;5045316;28;20129;-67
2023/08/16 11:55:14;;;;;;;13.25;3.05;;;35.70;48.30;;;;;;5052878;28;20050;-67
2023/08/16 11:57:46;;;;;;;10.85;3.30;;;35.60;48.20;;;;;;5044874;28;20080;-66
2023/08/16 12:00:14;;;;;;;14.43;3.00;;;35.60;48.20;;;;;;5045049;28;20149;-67
2023/08/16 12:02:43;;;;;;;11.38;2.97;;;35.60;49.20;;;;;;5044994;28;20061;-67
2023/08/16 12:05:10;;;;;;;10.05;2.85;;;35.60;49.10;;;;;;5048625;28;20059;-69
2023/08/16 12:07:52;;;;;;;6.63;2.45;;;35.60;49.20;;;;;;5045475;28;20512;-68
2023/08/16 12:10:28;;;;;;;19.92;3.03;;;35.60;49.50;;;;;;5044899;28;20455;-69
2023/08/16 12:12:56;;;;;;;11.48;2.72;;;35.60;48.80;;;;;;5043040;28;20069;-68
2023/08/16 12:15:23;;;;;;;12.32;2.75;;;35.60;49.60;;;;;;5044733;28;20413;-68
2023/08/16 12:17:55;;;;;;;10.45;2.65;;;35.60;48.90;;;;;;5044273;28;20057;-67
2023/08/16 12:20:29;;;;;;;15.98;2.67;;;35.60;49.10;;;;;;5045999;28;20111;-68
2023/08/16 12:22:55;;;;;;;12.30;2.53;;;35.60;48.90;;;;;;5044997;28;20111;-66
2023/08/16 12:25:22;;;;;;;15.07;2.97;;;35.60;48.60;;;;;;5045812;28;20184;-67
2023/08/16 12:27:48;;;;;;;13.25;3.28;;;35.50;48.60;;;;;;5043674;28;20091;-66
2023/08/16 12:30:15;;;;;;;10.40;2.60;;;35.60;48.50;;;;;;5045712;28;20212;-67
2023/08/16 12:32:41;;;;;;;6.95;2.30;;;35.60;48.60;;;;;;5043809;28;20049;-65
2023/08/16 12:35:08;;;;;;;23.50;3.20;;;35.50;48.30;;;;;;5044687;28;20063;-68
2023/08/16 12:37:35;;;;;;;15.77;2.90;;;35.60;48.50;;;;;;5049640;28;20115;-67
2023/08/16 12:40:02;;;;;;;12.30;2.95;;;35.60;48.30;;;;;;5044501;28;20077;-66
2023/08/16 12:42:28;;;;;;;9.77;2.55;;;35.60;48.40;;;;;;5044235;28;20133;-66